Wetterdaten Messnetz - Tabelle

Zum Sortieren der Spalten auf die Kopfzeile klicken. Arrow

Nach Bundesland filtern:

Wetterstation Zeit Höhe Temp Feuchte Luftdruck Trend Wind Windspitze Richtung Regen Sonne
Wangerooge 11:59 12 m 10.2 °C 61 % 1017.4 hPa 0.2 hPa 21 Km/h 37 Km/h W 0.4 mm  
Emden 12:11 2 m 9.6 °C 64 % 1018.8 hPa       N 0.0 mm  
Warstein/Romecke 12:43 283 m 9.3 °C 74 % 1018.5 hPa -0.2 hPa   3 Km/h N 0.5 mm 0.7 h
Belecke 13:00 279 m 7.8 °C 72 % 1019.5 hPa 0.5 hPa 7 Km/h 19 Km/h NNW 0.8 mm 1.5 h
Oldenburg 13:30 6 m 10.4 °C 40 % 1019.0 hPa   18 Km/h   WNW 0.0 mm  
Freepsum 13:42 0 m 9.7 °C 76 % 1018.7 hPa   20 Km/h 31 Km/h W 0.0 mm 1.0 h
Harsum 13:44 80 m 10.5 °C 64 % 1016.7 hPa 0.1 hPa 8 Km/h 16 Km/h WNW 0.2 mm 1.8 h
Faßberg/Müden-Örtze 13:45 57 m 11.7 °C 57 % 1016.2 hPa -0.5 hPa 7 Km/h 18 Km/h SW 0.2 mm 3.5 h
Hinte 13:46 1 m 11.0 °C 74 % 1017.9 hPa -0.3 hPa 18 Km/h 21 Km/h WNW 0.0 mm 2.7 h
Losser 13:50 36 m         5 Km/h   NNO    
Porta Westfalica 13:50 70 m 10.6 °C 66 % 1017.6 hPa   5 Km/h   NNO 0.4 mm  
Langeln 13:54 182 m 10.8 °C 55 % 1017.2 hPa 0.0 hPa 6 Km/h 19 Km/h NW 0.2 mm 4.3 h
Pewsum 13:55 2 m 9.1 °C 69 % 1017.2 hPa 0.1 hPa 13 Km/h 26 Km/h SSW 0.0 mm  
Nienburg/Weser 13:55 28 m 11.4 °C 69 % 1017.0 hPa -0.2 hPa   21 Km/h WNW 0.2 mm 3.4 h
Edewecht 13:55 5 m 11.9 °C 59 % 1017.3 hPa -0.2 hPa 9 Km/h 24 Km/h WNW 0.0 mm 0.7 h
Boren 13:55 8 m 11.1 °C 75 % 1013.5 hPa -0.8 hPa 10 Km/h 37 Km/h NW 1.2 mm 3.5 h
Behrendorf 13:55 25 m 10.8 °C 54 % 1015.4 hPa -0.3 hPa 2 Km/h 5 Km/h WNW 0.0 mm  
Kerkrade 13:55 155 m 9.5 °C 58 % 1020.6 hPa 0.8 hPa 5 Km/h 19 Km/h NW 0.4 mm  
Brunsbüttel 13:56 2 m 9.7 °C 78 % 1016.5 hPa 0.1 hPa 7 Km/h 24 Km/h NNW 0.6 mm  
Klein-Algermissen 13:58 75 m 12.2 °C 59 % 1017.3 hPa 0.0 hPa 7 Km/h 12 Km/h NNO 0.0 mm  
Hamburg-Niendorf 13:59 14 m 12.2 °C 60 % 1016.0 hPa -1.0 hPa   19 Km/h WSW 0.0 mm 4.8 h
Duisburg-Walsum 13:59 26 m 11.9 °C 66 % 1020.1 hPa   8 Km/h 18 Km/h NW 0.2 mm  
Meinerzhagen 13:59 510 m 9.8 °C 71 % 1018.1 hPa 1.0 hPa 15 Km/h 24 Km/h W 0.3 mm  
Strummendorf 13:59 105 m 10.9 °C 59 % 1017.3 hPa 0.1 hPa 2 Km/h 17 Km/h OSO 0.0 mm  
Nettetal-Kaldenkirchen 14:00 50 m 12.3 °C 58 % 1020.6 hPa 0.6 hPa 2 Km/h 15 Km/h NW 0.0 mm 4.4 h
Aschendorf 14:00 2 m 10.2 °C 73 % 1017.9 hPa 0.1 hPa 13 Km/h 27 Km/h NNW 0.0 mm 3.9 h
Südbrookmerland 14:00 1 m 9.4 °C 76 % 1017.8 hPa 0.1 hPa 21 Km/h 31 Km/h WNW 0.2 mm 3.3 h
Lohne (Oldenburg) 14:00 35 m 13.7 °C 54 % 1016.6 hPa 0.0 hPa 9 Km/h 24 Km/h SSW 0.2 mm 4.2 h
Belm 14:00 92 m 12.3 °C 47 % 1017.9 hPa 0.4 hPa 8 Km/h 24 Km/h WSW 0.8 mm 0.0 h
Herbern 14:00 91 m 11.4 °C 64 % 1018.9 hPa 0.2 hPa 3 Km/h 16 Km/h NNW 1.2 mm 2.8 h
Stade 14:00 9 m 10.0 °C 71 % 1015.4 hPa -0.2 hPa 9 Km/h 25 Km/h WNW 1.3 mm 4.4 h
Messingen 14:00 32 m 11.0 °C 60 % 1016.9 hPa 0.0 hPa 6 Km/h 21 Km/h WSW 0.2 mm  
Wedemark Bissendorf 14:00 55 m 12.9 °C 61 % 1017.9 hPa 0.3 hPa 1 Km/h 13 Km/h W 0.0 mm 0.0 h
Walle 14:00 63 m 13.0 °C 66 %   0.0 hPa 1 Km/h 14 Km/h SSO 0.0 mm 6.1 h
Borkum 14:00 1 m 12.9 °C 52 % 1016.6 hPa 0.2 hPa 6 Km/h 23 Km/h WNW 0.0 mm  
Schönstedt 14:00 190 m 10.3 °C 59 %   0.5 hPa 9 Km/h 22 Km/h NNW 1.5 mm 2.2 h
Bremen-Findorff 14:00 10 m 9.7 °C 77 % 1016.8 hPa 0.2 hPa 11 Km/h 45 Km/h WNW 0.0 mm 2.3 h
Kirchlinteln 14:00 48 m 9.0 °C 78 % 1016.0 hPa -0.1 hPa 1 Km/h 11 Km/h SSO 0.2 mm 0.6 h
Greifswald 14:00 10 m 11.6 °C 54 % 1014.1 hPa -0.6 hPa 3 Km/h 23 Km/h NO 0.2 mm 2.8 h
Süstedt 14:00 14 m 11.1 °C 60 % 1016.3 hPa -0.1 hPa 10 Km/h 27 Km/h W 0.0 mm 4.3 h
Brachelen 14:00 67 m 10.9 °C 59 % 1019.7 hPa 0.7 hPa 4 Km/h 19 Km/h WSW 0.2 mm 4.0 h
Delmenhorst 14:00 7 m         7 Km/h 24 Km/h NNW 0.6 mm 4.0 h
Varel 14:00 3 m 11.4 °C 62 % 1016.9 hPa -0.1 hPa 10 Km/h 24 Km/h WNW 2.6 mm  
Brachwitz 14:00 83 m 11.7 °C 48 % 1016.4 hPa 0.0 hPa 10 Km/h 23 Km/h W 0.4 mm 6.7 h
Vechta 14:00 36 m 11.7 °C 60 % 1017.2 hPa -0.1 hPa 3 Km/h 23 Km/h W 0.0 mm 3.5 h
Ilsenburg 14:00 228 m 9.1 °C 63 % 1016.1 hPa 0.0 hPa 1 Km/h 26 Km/h W 0.0 mm 1.4 h
Hagenburg 14:00 53 m 11.3 °C 68 % 1017.3 hPa -0.1 hPa   0 Km/h N 0.2 mm 4.3 h
Bad Tabarz 14:00 901 m 1.8 °C 96 % 1017.3 hPa 0.9 hPa 5 Km/h 23 Km/h WNW 1.2 mm 2.5 h
Wietzen 14:00 50 m 10.6 °C 72 % 1016.9 hPa -0.3 hPa 9 Km/h 24 Km/h WSW 0.0 mm 5.6 h
Kalbe (Milde) 14:00 28 m 11.3 °C 48 % 1017.3 hPa -0.3 hPa   0 Km/h WNW 0.0 mm 6.0 h
Steinbach 14:00 320 m 9.1 °C 71 % 1017.8 hPa 0.3 hPa 6 Km/h 18 Km/h NNO 1.0 mm 0.0 h
Warburg 14:00 218 m 10.0 °C 71 % 1018.2 hPa 0.2 hPa 9 Km/h 25 Km/h WNW 0.4 mm  
Groß Sarau 14:00 17 m 11.7 °C 60 % 1015.0 hPa -0.9 hPa 8 Km/h 23 Km/h WNW 0.1 mm 5.8 h
Dortmund 14:00 124 m 9.7 °C 69 % 1019.5 hPa 0.4 hPa   13 Km/h N 1.4 mm  
Berge/Anten 14:00 37 m 11.1 °C 62 % 1017.4 hPa -0.2 hPa 13 Km/h 23 Km/h WNW 0.2 mm  
Haren 14:00 24 m 11.2 °C 61 % 1018.3 hPa 0.0 hPa 7 Km/h 30 Km/h WNW 0.2 mm  
Molbergen 14:00 35 m 11.6 °C 69 % 1017.5 hPa 0.0 hPa 12 Km/h 24 Km/h NW 0.0 mm  
Stapelmoor 14:01 2 m 10.0 °C 100 % 1017.3 hPa 0.3 hPa   0 Km/h NW 0.0 mm 3.1 h
Hannover 14:02 93 m 13.3 °C 65 %   -0.6 hPa   0 Km/h N 0.0 mm  
Espelkamp 14:04 40 m 10.6 °C 58 % 1017.7 hPa 0.1 hPa 6 Km/h 13 Km/h W 0.0 mm  
Willich 14:04 36 m 13.1 °C 60 % 1020.4 hPa 0.5 hPa 6 Km/h 35 Km/h NNO 1.0 mm 4.6 h
Maximum 13.7 °C 100 % 1020.6 hPa 1.0 hPa 21 Km/h 45 Km/h 360 ° 2.6 mm 6.7 h
Mittelwert 10.7 °C 64.6 % 1017.5 hPa 0 hPa 8.1 Km/h 20.4 Km/h 240.9 ° 0.3 mm 3.2 h
Minimum 1.8 °C 40 % 1013.5 hPa -1.0 hPa 1 Km/h 0 Km/h 0 ° 0.0 mm 0.0 h